createdAt,value
2022-12-04T00:01:21.258Z,17.97
2022-12-04T00:03:55.627Z,18.33
2022-12-04T00:06:30.956Z,17.90
2022-12-04T00:09:06.932Z,19.10
2022-12-04T00:11:47.630Z,17.90
2022-12-04T00:14:24.261Z,20.07
2022-12-04T00:16:59.202Z,17.93
2022-12-04T00:19:34.926Z,17.93
2022-12-04T00:22:18.773Z,17.60
2022-12-04T00:24:52.805Z,18.47
2022-12-04T00:27:26.181Z,19.47
2022-12-04T00:29:58.706Z,19.63
2022-12-04T00:32:34.409Z,19.27
2022-12-04T00:35:11.895Z,17.77
2022-12-04T00:37:43.319Z,19.03
2022-12-04T00:40:19.710Z,17.03
2022-12-04T00:42:55.964Z,18.03
2022-12-04T00:45:26.004Z,17.17
2022-12-04T00:47:55.945Z,18.07
2022-12-04T00:50:32.788Z,18.83
2022-12-04T00:53:08.126Z,18.47
2022-12-04T00:55:45.011Z,17.87
2022-12-04T00:58:42.453Z,18.57
2022-12-04T01:01:16.344Z,18.63
2022-12-04T01:03:47.263Z,19.70
2022-12-04T01:06:25.619Z,20.63
2022-12-04T01:09:07.362Z,19.50
2022-12-04T01:11:44.110Z,20.43
2022-12-04T01:14:18.349Z,19.10
2022-12-04T01:16:55.870Z,20.13
2022-12-04T01:19:29.970Z,18.87
2022-12-04T01:22:10.512Z,19.27
2022-12-04T01:24:42.291Z,19.40
2022-12-04T01:27:17.852Z,17.70
2022-12-04T01:29:46.550Z,17.80
2022-12-04T01:32:14.831Z,18.57
2022-12-04T01:34:47.303Z,19.17
2022-12-04T01:37:18.733Z,17.27
2022-12-04T01:39:48.775Z,16.83
2022-12-04T01:42:23.554Z,18.20
2022-12-04T01:45:36.042Z,17.47
2022-12-04T01:48:14.342Z,17.00
2022-12-04T01:50:51.897Z,18.40
2022-12-04T01:53:22.902Z,18.70
2022-12-04T01:55:54.146Z,17.70
2022-12-04T01:58:33.344Z,17.83
2022-12-04T02:01:08.515Z,16.93
2022-12-04T02:03:37.912Z,15.83
2022-12-04T02:06:07.613Z,17.27
2022-12-04T02:08:37.440Z,15.23
2022-12-04T02:11:19.127Z,16.77
2022-12-04T02:13:56.802Z,14.87
2022-12-04T02:16:32.152Z,16.03
2022-12-04T02:19:16.527Z,16.73
2022-12-04T02:21:47.923Z,16.13
2022-12-04T02:24:45.355Z,15.47
2022-12-04T02:27:32.521Z,16.70
2022-12-04T02:30:05.756Z,16.03
2022-12-04T02:32:42.293Z,16.80
2022-12-04T02:35:17.275Z,16.53
2022-12-04T02:37:56.859Z,15.27
2022-12-04T02:40:29.135Z,15.70
2022-12-04T02:43:03.072Z,14.73
2022-12-04T02:45:38.315Z,17.63
2022-12-04T02:48:09.073Z,16.10
2022-12-04T02:50:41.474Z,15.93
2022-12-04T02:53:13.453Z,16.57
2022-12-04T02:55:45.142Z,16.00
2022-12-04T02:58:17.476Z,16.23
2022-12-04T03:00:49.685Z,15.63
2022-12-04T03:03:21.872Z,16.53
2022-12-04T03:05:56.465Z,18.43
2022-12-04T03:08:30.435Z,17.40
2022-12-04T03:11:01.472Z,17.33
2022-12-04T03:13:37.264Z,16.57
2022-12-04T03:16:11.748Z,16.17
2022-12-04T03:18:44.771Z,17.33
2022-12-04T03:21:22.979Z,18.87
2022-12-04T03:23:58.129Z,16.43
2022-12-04T03:26:30.925Z,14.77
2022-12-04T03:29:09.086Z,15.80
2022-12-04T03:31:45.019Z,14.83
2022-12-04T03:34:16.854Z,15.70
2022-12-04T03:36:51.038Z,16.57
2022-12-04T03:39:22.377Z,16.07
2022-12-04T03:41:58.376Z,15.87
2022-12-04T03:44:33.838Z,15.07
2022-12-04T03:47:08.310Z,14.47
2022-12-04T03:49:45.105Z,15.50
2022-12-04T03:52:18.934Z,14.93
2022-12-04T03:54:51.504Z,15.13
2022-12-04T03:57:24.734Z,14.80
2022-12-04T04:00:01.271Z,15.97
2022-12-04T04:02:36.300Z,15.87
2022-12-04T04:05:11.252Z,16.10
2022-12-04T04:07:44.758Z,15.03
2022-12-04T04:10:16.390Z,15.67
2022-12-04T04:13:10.904Z,17.37
2022-12-04T04:16:03.393Z,15.73
2022-12-04T04:18:51.351Z,16.37
2022-12-04T04:21:55.274Z,15.83
2022-12-04T04:24:31.003Z,14.83
2022-12-04T04:27:00.769Z,15.60
2022-12-04T04:29:29.416Z,17.73
2022-12-04T04:32:04.950Z,17.57
2022-12-04T04:34:47.099Z,17.43
2022-12-04T04:37:25.540Z,17.60
2022-12-04T04:40:01.625Z,17.30
2022-12-04T04:42:33.142Z,16.17
2022-12-04T04:45:09.423Z,16.97
2022-12-04T04:47:43.401Z,16.63
2022-12-04T04:50:14.934Z,15.90
2022-12-04T04:52:47.698Z,16.10
2022-12-04T04:55:17.756Z,16.23
2022-12-04T04:57:47.017Z,17.27
2022-12-04T05:00:20.051Z,17.57
2022-12-04T05:02:50.252Z,17.30
2022-12-04T05:05:20.207Z,15.80
2022-12-04T05:07:48.862Z,16.33
2022-12-04T05:10:17.882Z,17.47
2022-12-04T05:12:47.182Z,16.70
2022-12-04T05:15:15.665Z,15.53
2022-12-04T05:17:43.908Z,17.60
2022-12-04T05:20:12.789Z,17.27
2022-12-04T05:22:42.842Z,17.83
2022-12-04T05:25:11.946Z,17.37
2022-12-04T05:27:43.370Z,17.23
2022-12-04T05:30:12.653Z,17.13
2022-12-04T05:32:41.055Z,17.63
2022-12-04T05:35:11.590Z,17.37
2022-12-04T05:37:42.176Z,18.07
2022-12-04T05:40:12.100Z,17.67
2022-12-04T05:42:40.424Z,17.73
2022-12-04T05:45:09.800Z,17.70
2022-12-04T05:47:40.369Z,18.23
2022-12-04T05:50:10.717Z,18.10
2022-12-04T05:52:42.066Z,18.10
2022-12-04T05:55:10.811Z,16.80
2022-12-04T05:57:39.380Z,17.67
2022-12-04T06:00:09.427Z,16.40
2022-12-04T06:02:37.807Z,17.37
2022-12-04T06:05:07.099Z,17.80
2022-12-04T06:07:36.401Z,18.30
2022-12-04T06:10:07.655Z,17.87
2022-12-04T06:12:36.155Z,17.43
2022-12-04T06:15:04.905Z,17.10
2022-12-04T06:17:33.812Z,17.50
2022-12-04T06:20:06.510Z,18.33
2022-12-04T06:22:38.336Z,19.03
2022-12-04T06:25:09.070Z,19.10
2022-12-04T06:27:37.698Z,18.17
2022-12-04T06:30:07.288Z,18.83
2022-12-04T06:32:35.852Z,19.30
2022-12-04T06:35:04.643Z,18.13
2022-12-04T06:37:33.024Z,17.87
2022-12-04T06:40:01.743Z,16.73
2022-12-04T06:42:31.614Z,18.43
2022-12-04T06:45:00.048Z,18.47
2022-12-04T06:47:29.173Z,16.93
2022-12-04T06:49:58.437Z,18.50
2022-12-04T06:52:26.955Z,17.90
2022-12-04T06:54:59.095Z,17.80
2022-12-04T06:57:28.234Z,19.23
2022-12-04T06:59:58.186Z,18.33
2022-12-04T07:02:26.542Z,19.17
2022-12-04T07:04:57.082Z,17.47
2022-12-04T07:07:26.021Z,18.60
2022-12-04T07:09:54.781Z,19.50
2022-12-04T07:12:23.848Z,18.63
2022-12-04T07:14:52.398Z,17.27
2022-12-04T07:17:22.679Z,16.83
2022-12-04T07:19:50.863Z,17.77
2022-12-04T07:22:19.073Z,17.70
2022-12-04T07:24:48.152Z,18.57
2022-12-04T07:27:16.515Z,17.23
2022-12-04T07:29:44.900Z,17.27
2022-12-04T07:32:13.594Z,18.67
2022-12-04T07:34:43.574Z,19.27
2022-12-04T07:37:11.958Z,17.90
2022-12-04T07:39:40.268Z,18.60
2022-12-04T07:42:11.460Z,18.37
2022-12-04T07:44:42.612Z,24.75
2022-12-04T07:47:11.474Z,19.60
2022-12-04T07:49:40.200Z,17.77
2022-12-04T07:52:09.845Z,18.47
2022-12-04T07:54:38.260Z,17.97
2022-12-04T07:57:06.415Z,17.40
2022-12-04T07:59:34.700Z,18.03
2022-12-04T08:02:02.925Z,18.87
2022-12-04T08:04:32.183Z,18.30
2022-12-04T08:07:00.612Z,18.13
2022-12-04T08:09:30.914Z,17.57
2022-12-04T08:11:59.615Z,17.47
2022-12-04T08:14:28.116Z,18.30
2022-12-04T08:16:57.422Z,17.07
2022-12-04T08:19:25.791Z,20.30
2022-12-04T08:21:55.446Z,18.73
2022-12-04T08:24:27.039Z,20.47
2022-12-04T08:26:56.645Z,17.37
2022-12-04T08:29:24.863Z,18.47
2022-12-04T08:31:54.090Z,18.57
2022-12-04T08:34:22.462Z,18.73
2022-12-04T08:36:53.785Z,19.10
2022-12-04T08:39:22.170Z,20.03
2022-12-04T08:41:56.762Z,18.73
2022-12-04T08:44:27.233Z,17.90
2022-12-04T08:46:56.346Z,19.80
2022-12-04T08:49:24.983Z,17.87
2022-12-04T08:51:53.250Z,18.07
2022-12-04T08:54:21.887Z,19.53
2022-12-04T08:56:50.767Z,18.30
2022-12-04T08:59:19.091Z,17.73
2022-12-04T09:01:51.806Z,18.60
2022-12-04T09:04:20.602Z,17.87
2022-12-04T09:06:48.852Z,17.97
2022-12-04T09:09:17.129Z,18.10
2022-12-04T09:11:47.129Z,19.00
2022-12-04T09:14:15.301Z,19.47
2022-12-04T09:16:43.551Z,19.70
2022-12-04T09:22:40.516Z,18.43
2022-12-04T09:25:16.448Z,17.80
2022-12-04T09:27:45.559Z,19.80
2022-12-04T09:30:14.773Z,18.30
2022-12-04T09:32:43.128Z,19.97
2022-12-04T09:35:12.744Z,17.93
2022-12-04T09:37:41.115Z,18.23
2022-12-04T09:40:21.421Z,18.90
2022-12-04T09:42:57.167Z,20.20
2022-12-04T09:45:27.389Z,19.63
2022-12-04T09:47:59.833Z,19.50
2022-12-04T09:50:37.083Z,19.40
2022-12-04T09:53:12.653Z,17.73
2022-12-04T09:55:45.660Z,18.30
2022-12-04T09:58:16.747Z,17.57
2022-12-04T10:00:50.398Z,17.10
2022-12-04T10:03:21.099Z,16.23
2022-12-04T10:05:56.277Z,17.83
2022-12-04T10:08:28.652Z,19.97
2022-12-04T10:11:06.864Z,19.83
2022-12-04T10:13:55.642Z,17.97
2022-12-04T10:16:28.684Z,17.37
2022-12-04T10:19:07.155Z,17.47
2022-12-04T10:21:49.916Z,17.20
2022-12-04T10:24:35.396Z,19.30
2022-12-04T10:27:10.727Z,21.27
2022-12-04T10:29:43.259Z,17.63
2022-12-04T10:32:21.514Z,18.07
2022-12-04T10:34:53.540Z,18.50
2022-12-04T10:37:24.082Z,20.17
2022-12-04T10:39:56.299Z,16.00
2022-12-04T10:42:31.606Z,19.17
2022-12-04T10:45:00.028Z,17.53
2022-12-04T10:47:29.090Z,16.43
2022-12-04T10:50:01.629Z,18.40
2022-12-04T10:52:32.054Z,18.67
2022-12-04T10:55:02.213Z,18.13
2022-12-04T10:57:39.254Z,20.23
2022-12-04T11:00:27.103Z,20.10
2022-12-04T11:02:57.911Z,18.10
2022-12-04T11:05:29.957Z,18.83
2022-12-04T11:08:01.183Z,19.53
2022-12-04T11:10:35.114Z,19.80
2022-12-04T11:13:05.931Z,19.33
2022-12-04T11:15:37.306Z,19.80
2022-12-04T11:18:10.834Z,17.80
2022-12-04T11:20:42.828Z,18.23
2022-12-04T11:23:17.967Z,19.27
2022-12-04T11:25:48.653Z,19.47
2022-12-04T11:28:40.564Z,19.07
2022-12-04T11:31:11.230Z,19.07
2022-12-04T11:33:44.271Z,19.03
2022-12-04T11:36:22.032Z,18.97
2022-12-04T11:38:53.067Z,18.43
2022-12-04T11:41:30.500Z,18.27
2022-12-04T11:44:00.462Z,17.50
2022-12-04T11:46:31.906Z,16.97
2022-12-04T11:49:02.928Z,20.43
2022-12-04T11:51:47.286Z,19.87
2022-12-04T11:54:25.835Z,19.33
2022-12-04T11:57:04.397Z,19.70
2022-12-04T11:59:57.161Z,19.10
2022-12-04T12:02:50.685Z,17.43
2022-12-04T12:05:41.077Z,18.47
2022-12-04T12:08:18.715Z,18.80
2022-12-04T12:10:58.031Z,19.63
2022-12-04T12:13:32.416Z,19.00
2022-12-04T12:16:12.082Z,19.17
2022-12-04T12:19:04.609Z,21.07
2022-12-04T12:21:40.546Z,20.20
2022-12-04T12:24:22.848Z,21.67
2022-12-04T12:27:02.516Z,17.93
2022-12-04T12:29:47.909Z,20.73
2022-12-04T12:32:40.150Z,19.63
2022-12-04T12:35:21.640Z,20.20
2022-12-04T12:37:54.056Z,20.50
2022-12-04T12:40:31.546Z,21.13
2022-12-04T12:43:05.747Z,20.67
2022-12-04T12:45:41.743Z,20.03
2022-12-04T12:48:20.782Z,20.03
2022-12-04T12:51:15.012Z,17.73
2022-12-04T12:53:48.537Z,20.03
2022-12-04T12:56:20.106Z,19.93
2022-12-04T12:58:55.169Z,19.10
2022-12-04T13:01:29.539Z,19.73
2022-12-04T13:04:04.606Z,22.03
2022-12-04T13:06:36.389Z,19.07
2022-12-04T13:09:10.529Z,21.93
2022-12-04T13:11:39.921Z,20.17
2022-12-04T13:14:14.373Z,20.87
2022-12-04T13:16:47.691Z,19.03
2022-12-04T13:19:22.363Z,19.97
2022-12-04T13:21:57.671Z,20.10
2022-12-04T13:24:54.933Z,20.93
2022-12-04T13:27:35.804Z,20.00
2022-12-04T13:30:16.755Z,20.03
2022-12-04T13:33:20.260Z,20.70
2022-12-04T13:36:16.833Z,19.37
2022-12-04T13:38:58.464Z,20.73
2022-12-04T13:41:29.010Z,20.03
2022-12-04T13:44:02.810Z,19.37
2022-12-04T13:46:37.713Z,21.43
2022-12-04T13:49:10.925Z,23.43
2022-12-04T13:51:41.296Z,21.13
2022-12-04T13:54:26.822Z,20.90
2022-12-04T13:56:57.413Z,20.83
2022-12-04T13:59:36.941Z,21.40
2022-12-04T14:02:27.686Z,20.43
2022-12-04T14:05:00.501Z,21.53
2022-12-04T14:07:32.095Z,21.50
2022-12-04T14:10:04.695Z,20.80
2022-12-04T14:12:37.269Z,22.17
2022-12-04T14:15:08.809Z,21.10
2022-12-04T14:17:40.596Z,21.53
2022-12-04T14:20:25.441Z,22.17
2022-12-04T14:22:54.199Z,21.83
2022-12-04T14:25:35.826Z,25.87
2022-12-04T14:28:29.913Z,21.80
2022-12-04T14:31:07.728Z,22.33
2022-12-04T14:33:43.556Z,22.43
2022-12-04T14:36:19.139Z,23.57
2022-12-04T14:38:49.532Z,20.33
2022-12-04T14:41:25.665Z,21.23
2022-12-04T14:43:56.498Z,22.33
2022-12-04T14:46:31.535Z,20.40
2022-12-04T14:49:13.719Z,21.57
2022-12-04T14:51:49.884Z,20.33
2022-12-04T14:54:26.747Z,20.60
2022-12-04T14:57:11.978Z,20.83
2022-12-04T14:59:45.478Z,20.60
2022-12-04T15:02:18.216Z,21.23
2022-12-04T15:04:49.686Z,20.97
2022-12-04T15:07:22.708Z,22.07
2022-12-04T15:10:12.924Z,19.63
2022-12-04T15:12:45.831Z,20.27
2022-12-04T15:15:19.562Z,21.03
2022-12-04T15:18:00.997Z,20.73
2022-12-04T15:20:37.537Z,23.27
2022-12-04T15:23:07.384Z,22.13
2022-12-04T15:25:44.527Z,21.87
2022-12-04T15:28:18.566Z,22.37
2022-12-04T15:30:48.194Z,21.70
2022-12-04T15:33:21.492Z,22.73
2022-12-04T15:35:55.455Z,21.38
2022-12-04T15:38:24.581Z,19.90
2022-12-04T15:40:55.588Z,18.58
2022-12-04T15:43:32.334Z,20.10
2022-12-04T15:46:00.632Z,20.03
2022-12-04T15:48:31.169Z,19.10
2022-12-04T15:51:05.017Z,20.40
2022-12-04T15:53:36.647Z,20.23
2022-12-04T15:56:07.772Z,18.90
2022-12-04T15:58:38.857Z,21.80
2022-12-04T16:01:09.513Z,19.83
2022-12-04T16:03:46.474Z,23.60
2022-12-04T16:06:21.477Z,20.60
2022-12-04T16:08:51.926Z,19.87
2022-12-04T16:11:32.364Z,20.58
2022-12-04T16:14:15.294Z,21.30
2022-12-04T16:16:45.477Z,21.53
2022-12-04T16:19:18.159Z,19.53
2022-12-04T16:21:48.184Z,19.90
2022-12-04T16:24:16.479Z,20.73
2022-12-04T16:26:44.685Z,19.75
2022-12-04T16:29:12.991Z,19.33
2022-12-04T16:31:41.558Z,19.33
2022-12-04T16:34:12.323Z,19.27
2022-12-04T16:36:41.455Z,20.33
2022-12-04T16:39:11.145Z,19.43
2022-12-04T16:41:39.936Z,20.83
2022-12-04T16:44:15.404Z,19.40
2022-12-04T16:46:45.124Z,19.27
2022-12-04T16:49:14.266Z,20.53
2022-12-04T16:51:46.841Z,19.47
2022-12-04T16:54:17.626Z,19.83
2022-12-04T16:56:46.417Z,19.57
2022-12-04T16:59:14.653Z,19.37
2022-12-04T17:01:46.873Z,20.97
2022-12-04T17:04:15.528Z,20.13
2022-12-04T17:06:43.901Z,21.07
2022-12-04T17:09:12.931Z,21.07
2022-12-04T17:11:43.012Z,20.53
2022-12-04T17:14:11.790Z,22.37
2022-12-04T17:16:42.593Z,20.93
2022-12-04T17:19:11.953Z,20.90
2022-12-04T17:21:41.686Z,19.40
2022-12-04T17:24:10.378Z,21.53
2022-12-04T17:26:38.700Z,18.13
2022-12-04T17:29:08.274Z,20.17
2022-12-04T17:31:36.733Z,19.70
2022-12-04T17:34:06.072Z,20.67
2022-12-04T17:36:34.357Z,21.87
2022-12-04T17:39:03.121Z,19.53
2022-12-04T17:41:31.393Z,19.57
2022-12-04T17:44:01.626Z,18.67
2022-12-04T17:46:31.569Z,18.23
2022-12-04T17:49:05.276Z,19.47
2022-12-04T17:51:37.005Z,18.37
2022-12-04T17:54:06.584Z,18.27
2022-12-04T17:56:35.966Z,17.30
2022-12-04T17:59:04.625Z,18.30
2022-12-04T18:01:34.479Z,17.47
2022-12-04T18:04:04.462Z,18.00
2022-12-04T18:06:34.307Z,17.53
2022-12-04T18:09:04.018Z,17.13
2022-12-04T18:11:34.407Z,17.08
2022-12-04T18:14:10.098Z,20.40
2022-12-04T18:16:44.229Z,17.77
2022-12-04T18:19:13.444Z,17.87
2022-12-04T18:21:43.020Z,17.60
2022-12-04T18:24:11.383Z,18.87
2022-12-04T18:26:42.310Z,17.47
2022-12-04T18:29:14.596Z,18.17
2022-12-04T18:31:45.317Z,17.87
2022-12-04T18:34:14.559Z,18.53
2022-12-04T18:36:45.275Z,18.03
2022-12-04T18:39:15.172Z,18.37
2022-12-04T18:41:44.134Z,19.20
2022-12-04T18:44:12.834Z,19.77
2022-12-04T18:46:41.855Z,17.37
2022-12-04T18:49:11.913Z,19.20
2022-12-04T18:51:42.288Z,17.47
2022-12-04T18:54:13.920Z,18.27
2022-12-04T18:56:42.579Z,18.40
2022-12-04T18:59:13.177Z,18.40
2022-12-04T19:01:42.138Z,17.43
2022-12-04T19:04:14.210Z,18.87
2022-12-04T19:06:43.923Z,17.53
2022-12-04T19:09:14.260Z,18.50
2022-12-04T19:11:43.022Z,19.13
2022-12-04T19:14:22.444Z,21.33
2022-12-04T19:17:00.609Z,19.10
2022-12-04T19:19:35.154Z,18.47
2022-12-04T19:22:18.863Z,18.90
2022-12-04T19:24:55.759Z,17.87
2022-12-04T19:27:38.409Z,17.23
2022-12-04T19:30:08.702Z,17.63
2022-12-04T19:32:48.938Z,17.07
2022-12-04T19:35:22.991Z,17.13
2022-12-04T19:37:54.275Z,18.47
2022-12-04T19:40:24.941Z,18.50
2022-12-04T19:43:01.130Z,19.33
2022-12-04T19:45:32.414Z,18.07
2022-12-04T19:48:03.593Z,18.60
2022-12-04T19:50:37.629Z,17.10
2022-12-04T19:53:06.961Z,18.07
2022-12-04T19:55:37.782Z,17.30
2022-12-04T19:58:07.804Z,17.07
2022-12-04T20:00:39.203Z,15.30
2022-12-04T20:03:12.517Z,15.23
2022-12-04T20:05:47.143Z,15.30
2022-12-04T20:08:24.726Z,14.77
2022-12-04T20:10:54.624Z,15.67
2022-12-04T20:13:26.512Z,14.80
2022-12-04T20:16:05.398Z,14.20
2022-12-04T20:18:37.858Z,15.43
2022-12-04T20:21:15.909Z,15.33
2022-12-04T20:23:52.439Z,15.37
2022-12-04T20:26:24.316Z,16.03
2022-12-04T20:28:58.867Z,14.93
2022-12-04T20:31:30.439Z,16.47
2022-12-04T20:34:02.389Z,15.30
2022-12-04T20:36:43.344Z,16.60
2022-12-04T20:39:19.427Z,15.53
2022-12-04T20:41:59.574Z,16.40
2022-12-04T20:44:29.204Z,16.00
2022-12-04T20:47:02.708Z,15.47
2022-12-04T20:49:32.891Z,15.97
2022-12-04T20:52:17.622Z,14.60
2022-12-04T20:54:52.081Z,14.90
2022-12-04T20:57:25.419Z,16.07
2022-12-04T20:59:57.208Z,14.87
2022-12-04T21:02:26.974Z,15.53
2022-12-04T21:04:57.016Z,14.40
2022-12-04T21:07:34.317Z,15.87
2022-12-04T21:10:03.561Z,15.67
2022-12-04T21:12:51.266Z,14.30
2022-12-04T21:15:38.328Z,14.30
2022-12-04T21:18:17.311Z,15.10
2022-12-04T21:20:48.442Z,14.97
2022-12-04T21:23:22.714Z,15.10
2022-12-04T21:25:58.545Z,14.50
2022-12-04T21:28:27.640Z,13.87
2022-12-04T21:31:02.356Z,15.00
2022-12-04T21:33:43.376Z,13.83
2022-12-04T21:36:14.132Z,14.90
2022-12-04T21:38:45.836Z,15.23
2022-12-04T21:41:34.552Z,15.23
2022-12-04T21:44:17.434Z,14.40
2022-12-04T21:47:02.385Z,15.47
2022-12-04T21:49:32.346Z,16.30
2022-12-04T21:52:02.254Z,15.60
2022-12-04T21:54:32.486Z,17.70
2022-12-04T21:57:01.735Z,14.90
2022-12-04T21:59:36.045Z,21.37
2022-12-04T22:02:07.324Z,17.97
2022-12-04T22:04:44.949Z,19.00
2022-12-04T22:07:16.627Z,15.80
2022-12-04T22:09:47.166Z,15.37
2022-12-04T22:15:05.751Z,15.57
2022-12-04T22:17:38.907Z,14.30
2022-12-04T22:20:09.659Z,14.20
2022-12-04T22:22:40.193Z,14.23
2022-12-04T22:25:17.698Z,14.63
2022-12-04T22:27:56.980Z,14.50
2022-12-04T22:30:28.080Z,13.97
2022-12-04T22:32:57.956Z,13.97
2022-12-04T22:35:30.047Z,14.40
2022-12-04T22:38:18.020Z,14.00
2022-12-04T22:40:48.885Z,14.87
2022-12-04T22:43:17.908Z,14.77
2022-12-04T22:45:46.801Z,13.87
2022-12-04T22:48:17.122Z,15.23
2022-12-04T22:50:47.241Z,14.47
2022-12-04T22:53:43.265Z,14.20
2022-12-04T22:56:39.182Z,14.57
2022-12-04T22:59:40.621Z,13.60
2022-12-04T23:05:28.836Z,14.13
2022-12-04T23:08:10.219Z,13.43
2022-12-04T23:10:52.470Z,12.77
2022-12-04T23:13:32.089Z,14.40
2022-12-04T23:16:19.707Z,13.47
2022-12-04T23:19:00.659Z,14.90
2022-12-04T23:21:41.282Z,13.33
2022-12-04T23:24:28.584Z,13.67
2022-12-04T23:27:07.570Z,13.77
2022-12-04T23:30:30.533Z,11.97
2022-12-04T23:36:21.289Z,13.57
2022-12-04T23:39:22.441Z,12.73
2022-12-04T23:41:52.445Z,13.10
2022-12-04T23:44:23.012Z,13.53
2022-12-04T23:47:02.925Z,13.30
2022-12-04T23:50:03.223Z,13.80
2022-12-04T23:53:00.770Z,12.07
2022-12-04T23:55:54.091Z,11.67
2022-12-04T23:58:43.312Z,13.90
